METAR Data

Data at: 2131 UTC 01 Dec 2021

METAR for:KPSM (Portsmouth Intl, NH, US)
Text:KPSM 012056Z 26004KT 10SM FEW045 SCT200 06/M06 A3009 RMK AO2A SLP193 T00591064 53016
Temperature: 5.9°C ( 43°F)
Dewpoint: -6.4°C ( 20°F) [RH = 41%]
Pressure (altimeter):30.09 inches Hg (1019.0 mb) [Sea level pressure: 1019.3 mb]
Winds:from the W (260 degrees) at 5 MPH (4 knots; 2.1 m/s)
Visibility:10 or more sm (16+ km)
Ceiling:at least 12,000 feet AGL
Clouds: few clouds at 4500 feet AGL, scattered clouds at 20000 feet AGL